createdAt,value
2019-01-13T00:01:10.680Z,99.90
2019-01-13T00:04:32.549Z,99.90
2019-01-13T00:12:01.385Z,99.90
2019-01-13T00:15:20.504Z,99.90
2019-01-13T00:18:28.998Z,99.90
2019-01-13T00:21:37.769Z,99.90
2019-01-13T00:24:46.337Z,99.90
2019-01-13T00:32:06.997Z,99.90
2019-01-13T00:35:27.996Z,99.90
2019-01-13T00:38:47.951Z,99.90
2019-01-13T00:42:11.865Z,99.90
2019-01-13T00:45:20.017Z,99.90
2019-01-13T00:48:28.461Z,99.90
2019-01-13T00:51:49.378Z,99.90
2019-01-13T00:55:35.975Z,99.90
2019-01-13T00:58:54.953Z,99.90
2019-01-13T01:02:17.602Z,99.90
2019-01-13T01:05:26.177Z,99.90
2019-01-13T01:12:59.355Z,99.90
2019-01-13T01:16:19.297Z,99.90
2019-01-13T01:23:36.942Z,99.90
2019-01-13T01:30:51.252Z,99.90
2019-01-13T01:33:59.729Z,99.90
2019-01-13T01:44:27.598Z,99.70
2019-01-13T01:47:36.204Z,99.70
2019-01-13T01:50:44.700Z,99.60
2019-01-13T01:53:53.305Z,99.70
2019-01-13T01:57:01.977Z,99.80
2019-01-13T02:00:32.403Z,99.70
2019-01-13T02:03:56.236Z,99.60
2019-01-13T02:07:16.098Z,99.60
2019-01-13T02:10:38.698Z,99.80
2019-01-13T02:14:11.065Z,99.90
2019-01-13T02:17:31.456Z,99.90
2019-01-13T02:20:39.958Z,99.90
2019-01-13T02:23:48.413Z,99.90
2019-01-13T02:27:08.288Z,99.90
2019-01-13T02:34:42.110Z,99.90
2019-01-13T02:41:43.032Z,99.90
2019-01-13T02:44:51.538Z,99.90
2019-01-13T02:48:00.005Z,99.90
2019-01-13T02:55:15.113Z,99.90
2019-01-13T02:58:45.462Z,99.60
2019-01-13T03:01:54.053Z,99.70
2019-01-13T03:05:02.717Z,99.60
2019-01-13T03:08:31.844Z,99.90
2019-01-13T03:11:40.333Z,99.90
2019-01-13T03:30:37.207Z,99.90
2019-01-13T03:34:08.489Z,99.90
2019-01-13T03:37:17.020Z,99.90
2019-01-13T03:40:44.581Z,99.90
2019-01-13T03:48:27.954Z,99.90
2019-01-13T03:59:36.265Z,99.90
2019-01-13T04:03:00.923Z,99.90
2019-01-13T04:10:02.216Z,99.90
2019-01-13T04:13:10.695Z,99.90
2019-01-13T04:16:19.298Z,99.90
2019-01-13T04:27:38.478Z,99.90
2019-01-13T04:31:05.125Z,99.90
2019-01-13T04:53:37.763Z,99.90
2019-01-13T04:56:57.759Z,99.90
2019-01-13T05:08:32.961Z,99.90
2019-01-13T05:12:02.160Z,99.90
2019-01-13T05:19:05.565Z,99.90
2019-01-13T05:22:32.959Z,99.90
2019-01-13T05:25:52.902Z,99.90
2019-01-13T05:37:22.881Z,99.90
2019-01-13T06:19:43.493Z,99.90
2019-01-13T06:23:39.824Z,99.90
2019-01-13T06:50:26.499Z,99.90
2019-01-13T07:02:25.198Z,99.90
2019-01-13T07:05:45.991Z,99.90
2019-01-13T07:09:14.074Z,99.90
2019-01-13T07:31:20.948Z,99.90
2019-01-13T07:34:29.541Z,99.90
2019-01-13T07:44:59.880Z,99.90
2019-01-13T07:52:29.990Z,99.90
2019-01-13T07:55:50.805Z,99.90
2019-01-13T07:59:27.864Z,99.90
2019-01-13T08:10:22.966Z,99.90
2019-01-13T08:13:43.206Z,99.90
2019-01-13T08:17:02.229Z,99.90
2019-01-13T08:20:19.485Z,99.90
2019-01-13T08:23:50.607Z,99.90
2019-01-13T08:27:14.374Z,99.90
2019-01-13T08:30:22.943Z,99.90
2019-01-13T08:33:31.382Z,99.90
2019-01-13T08:36:39.963Z,99.90
2019-01-13T08:39:58.752Z,99.90
2019-01-13T08:43:19.297Z,99.90
2019-01-13T08:46:38.304Z,99.90
2019-01-13T08:50:06.718Z,99.90
2019-01-13T09:27:09.948Z,99.90
2019-01-13T10:21:38.946Z,99.90
2019-01-13T10:32:55.115Z,99.90
2019-01-13T12:33:54.931Z,99.90
2019-01-13T13:09:27.487Z,99.90
2019-01-13T13:12:54.499Z,99.90
2019-01-13T13:16:41.597Z,99.90
2019-01-13T13:20:02.467Z,99.90
2019-01-13T13:23:24.856Z,99.90
2019-01-13T13:26:44.679Z,99.90
2019-01-13T13:30:16.581Z,99.90
2019-01-13T13:48:47.322Z,99.90
2019-01-13T14:14:41.869Z,99.90
2019-01-13T15:44:49.575Z,99.90
2019-01-13T16:24:48.053Z,99.20
2019-01-13T17:47:08.859Z,98.50
2019-01-13T17:50:28.922Z,98.20
2019-01-13T18:17:16.928Z,97.80
2019-01-13T19:02:16.704Z,97.20
2019-01-13T19:05:51.887Z,97.30
2019-01-13T19:09:16.075Z,97.40
2019-01-13T19:45:03.134Z,97.70
2019-01-13T19:56:39.203Z,97.20
2019-01-13T19:59:54.649Z,97.10
2019-01-13T20:03:03.531Z,97.10
2019-01-13T20:22:26.968Z,97.30
2019-01-13T20:25:38.224Z,96.60
2019-01-13T20:28:48.745Z,95.80
2019-01-13T20:32:16.113Z,95.80
2019-01-13T20:35:56.188Z,95.70
2019-01-13T20:39:30.774Z,96.40
2019-01-13T20:43:16.968Z,96.40
2019-01-13T20:46:36.692Z,96.40
2019-01-13T20:53:40.238Z,95.80
2019-01-13T21:01:10.974Z,95.90
2019-01-13T21:04:20.587Z,95.50
2019-01-13T21:07:29.275Z,95.40
2019-01-13T21:10:38.454Z,94.90
2019-01-13T21:13:47.320Z,94.80
2019-01-13T21:16:56.060Z,94.70
2019-01-13T21:20:05.816Z,94.10
2019-01-13T21:23:14.993Z,93.60
2019-01-13T21:26:23.532Z,93.30
2019-01-13T21:29:31.971Z,92.80
2019-01-13T21:32:50.843Z,92.50
2019-01-13T21:35:59.304Z,92.40
2019-01-13T21:39:10.014Z,92.10
2019-01-13T21:42:18.467Z,92.40
2019-01-13T21:45:26.917Z,92.30
2019-01-13T21:48:35.384Z,92.00
2019-01-13T21:51:54.332Z,91.40
2019-01-13T21:55:02.787Z,92.00
2019-01-13T21:58:11.261Z,92.60
2019-01-13T22:01:19.696Z,91.80
2019-01-13T22:04:54.252Z,91.30
2019-01-13T22:08:14.023Z,90.50
2019-01-13T22:11:34.043Z,90.00
2019-01-13T22:14:42.496Z,90.30
2019-01-13T22:18:01.302Z,90.20
2019-01-13T22:21:09.754Z,90.40
2019-01-13T22:24:18.241Z,90.00
2019-01-13T22:27:26.667Z,90.00
2019-01-13T22:30:57.637Z,90.40
2019-01-13T22:34:17.471Z,90.40
2019-01-13T22:37:36.274Z,89.80
2019-01-13T22:40:44.724Z,89.20
2019-01-13T22:43:53.199Z,87.90
2019-01-13T22:47:01.735Z,87.60
2019-01-13T23:09:13.960Z,85.70
2019-01-13T23:12:32.848Z,87.10
2019-01-13T23:16:18.907Z,86.70
2019-01-13T23:19:43.085Z,86.80
2019-01-13T23:23:14.951Z,87.90
2019-01-13T23:27:00.237Z,86.30
2019-01-13T23:49:14.254Z,86.30
